Time;durP1;ratioP1;P1;durP2;ratioP2;P2;SDS_P1;SDS_P2;PMS_P1;PMS_P2;Temp;Humidity;BMP_temperature;BMP_pressure;BME280_temperature;BME280_humidity;BME280_pressure;Samples;Min_cycle;Max_cycle;Signal;HPM_P1;HPM_P2
2023/12/29 00:01:44;;;;;;;8.23;2.95;;;9.80;99.90;;;;;;4980475;28;89905;-32
2023/12/29 00:04:09;;;;;;;7.10;3.85;;;9.80;99.90;;;;;;4979288;28;90134;-30
2023/12/29 00:06:39;;;;;;;10.88;3.22;;;9.80;99.90;;;;;;4980630;28;90402;-32
2023/12/29 00:09:05;;;;;;;7.85;3.58;;;9.80;99.90;;;;;;4981493;28;89805;-31
2023/12/29 00:11:30;;;;;;;4.15;3.13;;;9.80;99.90;;;;;;4980446;28;89887;-32
2023/12/29 00:13:56;;;;;;;6.20;4.50;;;9.80;99.90;;;;;;4981363;28;89797;-32
2023/12/29 00:16:22;;;;;;;7.60;3.30;;;9.80;99.90;;;;;;4980569;28;89625;-32
2023/12/29 00:18:47;;;;;;;4.82;3.50;;;9.80;99.90;;;;;;4981085;28;89310;-31
2023/12/29 00:21:13;;;;;;;5.80;2.83;;;9.80;99.90;;;;;;4980343;28;89584;-31
2023/12/29 00:23:40;;;;;;;8.88;4.13;;;9.80;99.90;;;;;;4981304;28;90029;-30
2023/12/29 00:26:05;;;;;;;11.93;2.75;;;9.80;99.90;;;;;;4980644;28;87883;-32
2023/12/29 00:28:31;;;;;;;5.07;3.17;;;9.80;99.90;;;;;;4980362;28;89406;-34
2023/12/29 00:30:57;;;;;;;13.85;3.67;;;9.80;99.90;;;;;;4980597;28;87810;-31
2023/12/29 00:33:23;;;;;;;5.30;2.88;;;9.80;99.90;;;;;;4980394;28;92275;-30
2023/12/29 00:35:48;;;;;;;5.13;2.85;;;9.80;99.90;;;;;;4979905;28;90918;-33
2023/12/29 00:38:14;;;;;;;10.90;3.63;;;9.80;99.90;;;;;;4980626;28;89841;-29
2023/12/29 00:40:40;;;;;;;6.10;3.40;;;9.80;99.90;;;;;;4979572;28;90480;-30
2023/12/29 00:43:05;;;;;;;4.93;2.40;;;9.80;99.90;;;;;;4980386;28;89568;-30
2023/12/29 00:45:35;;;;;;;12.65;3.25;;;9.70;99.90;;;;;;4979573;28;89807;-30
2023/12/29 00:48:02;;;;;;;8.32;3.78;;;9.60;99.90;;;;;;4979833;28;89105;-32
2023/12/29 00:50:28;;;;;;;4.57;3.10;;;9.60;99.90;;;;;;4980425;28;89629;-33
2023/12/29 00:52:53;;;;;;;7.10;3.38;;;9.50;99.90;;;;;;4980232;28;90376;-30
2023/12/29 00:55:19;;;;;;;9.23;3.83;;;9.50;99.90;;;;;;4979755;28;89960;-34
2023/12/29 00:57:45;;;;;;;6.47;3.17;;;9.40;99.90;;;;;;4980622;28;89338;-30
2023/12/29 01:00:12;;;;;;;8.68;3.50;;;9.40;99.90;;;;;;4978682;28;88575;-30
2023/12/29 01:02:38;;;;;;;5.57;2.97;;;9.40;99.90;;;;;;4980090;28;89002;-33
2023/12/29 01:05:05;;;;;;;6.65;3.03;;;9.40;99.90;;;;;;4979575;28;90179;-32
2023/12/29 01:07:30;;;;;;;5.13;3.97;;;9.40;99.90;;;;;;4979629;28;89095;-33
2023/12/29 01:09:56;;;;;;;15.15;3.85;;;9.40;99.90;;;;;;4979876;28;90216;-33
2023/12/29 01:12:22;;;;;;;7.00;3.78;;;9.30;99.90;;;;;;4980267;28;89918;-30
2023/12/29 01:14:47;;;;;;;6.28;3.40;;;9.30;99.90;;;;;;4980014;28;89370;-33
2023/12/29 01:17:13;;;;;;;5.53;4.13;;;9.30;99.90;;;;;;4979739;28;89578;-29
2023/12/29 01:19:38;;;;;;;5.82;3.08;;;9.30;99.90;;;;;;4979466;28;89686;-29
2023/12/29 01:22:04;;;;;;;7.43;4.53;;;9.30;99.90;;;;;;4979845;28;89652;-30
2023/12/29 01:24:30;;;;;;;5.05;2.95;;;9.30;99.90;;;;;;4979544;28;90601;-30
2023/12/29 01:26:56;;;;;;;13.75;4.15;;;9.30;99.90;;;;;;4979160;28;89556;-34
2023/12/29 01:29:21;;;;;;;5.85;3.05;;;9.30;99.90;;;;;;4980367;28;88574;-33
2023/12/29 01:31:47;;;;;;;6.35;3.90;;;9.30;99.90;;;;;;4977286;28;89955;-33
2023/12/29 01:34:13;;;;;;;5.38;3.10;;;9.30;99.90;;;;;;4979502;28;89226;-33
2023/12/29 01:36:39;;;;;;;6.55;3.38;;;9.30;99.90;;;;;;4979580;28;89479;-30
2023/12/29 01:39:05;;;;;;;7.95;3.15;;;9.30;99.90;;;;;;4979903;28;90985;-34
2023/12/29 01:41:30;;;;;;;5.45;3.35;;;9.30;99.90;;;;;;4979737;28;89182;-30
2023/12/29 01:43:56;;;;;;;4.70;4.13;;;9.30;99.90;;;;;;4978219;28;89678;-32
2023/12/29 01:46:22;;;;;;;5.13;3.58;;;9.30;99.90;;;;;;4979822;28;89444;-29
2023/12/29 01:48:48;;;;;;;19.05;3.75;;;9.30;99.90;;;;;;4977908;28;90280;-33
2023/12/29 01:51:15;;;;;;;6.07;2.90;;;9.30;99.90;;;;;;4979382;28;90397;-33
2023/12/29 01:53:41;;;;;;;11.73;3.60;;;9.30;99.90;;;;;;4979559;28;90029;-32
2023/12/29 01:56:07;;;;;;;8.38;3.20;;;9.30;99.90;;;;;;4978743;28;89328;-33
2023/12/29 01:58:33;;;;;;;7.82;3.80;;;9.30;99.90;;;;;;4979440;28;90375;-32
2023/12/29 02:01:01;;;;;;;16.45;3.30;;;9.30;99.90;;;;;;4979315;28;89442;-30
2023/12/29 02:03:27;;;;;;;10.00;3.60;;;9.20;99.90;;;;;;4979082;28;90033;-33
2023/12/29 02:05:57;;;;;;;10.85;3.88;;;9.20;99.90;;;;;;4979690;28;88799;-31
2023/12/29 02:08:23;;;;;;;6.93;3.63;;;9.20;99.90;;;;;;4978795;28;89681;-33
2023/12/29 02:10:49;;;;;;;6.95;3.13;;;9.20;99.90;;;;;;4978620;28;90308;-30
2023/12/29 02:13:14;;;;;;;9.90;3.13;;;9.20;99.90;;;;;;4978271;28;90841;-31
2023/12/29 02:15:40;;;;;;;7.65;2.47;;;9.20;99.90;;;;;;4979196;28;90664;-34
2023/12/29 02:18:09;;;;;;;4.60;2.25;;;9.30;99.90;;;;;;4978819;28;88617;-33
2023/12/29 02:20:35;;;;;;;10.23;3.42;;;9.30;99.90;;;;;;4978521;28;90148;-31
2023/12/29 02:23:02;;;;;;;8.82;4.75;;;9.30;99.90;;;;;;4977971;28;89242;-31
2023/12/29 02:25:28;;;;;;;8.23;3.58;;;9.30;99.90;;;;;;4979232;28;89258;-32
2023/12/29 02:28:15;;;;;;;3.83;2.35;;;9.30;99.90;;;;;;4978327;28;88207;-31
2023/12/29 02:31:03;;;;;;;6.10;2.97;;;9.40;99.90;;;;;;4978680;28;90789;-33
2023/12/29 02:33:32;;;;;;;5.78;3.25;;;9.40;99.90;;;;;;4968729;28;90001;-31
2023/12/29 02:36:01;;;;;;;7.28;3.20;;;9.40;99.90;;;;;;4978264;28;89986;-30
2023/12/29 02:38:28;;;;;;;6.95;3.42;;;9.40;99.90;;;;;;4978474;28;90249;-31
2023/12/29 02:40:56;;;;;;;5.47;3.25;;;9.40;99.90;;;;;;4978678;28;89954;-31
2023/12/29 02:43:21;;;;;;;6.03;3.75;;;9.40;99.90;;;;;;4977913;28;89600;-30
2023/12/29 02:45:47;;;;;;;8.27;3.40;;;9.50;99.90;;;;;;4977950;28;90382;-33
2023/12/29 02:48:12;;;;;;;13.35;4.25;;;9.50;99.90;;;;;;4979100;28;89286;-30
2023/12/29 02:50:38;;;;;;;8.90;3.30;;;9.60;99.90;;;;;;4978564;28;89016;-30
2023/12/29 02:53:04;;;;;;;7.75;3.80;;;9.60;99.90;;;;;;4978076;28;89743;-32
2023/12/29 02:55:30;;;;;;;4.22;2.55;;;9.60;99.90;;;;;;4978511;28;89444;-32
2023/12/29 02:57:55;;;;;;;5.53;3.03;;;9.60;99.90;;;;;;4978051;28;89007;-31
2023/12/29 03:00:21;;;;;;;2.88;2.35;;;9.60;99.90;;;;;;4980267;28;91273;-32
2023/12/29 03:02:46;;;;;;;3.75;2.97;;;9.60;99.90;;;;;;4981537;28;90401;-32
2023/12/29 03:05:12;;;;;;;6.35;3.63;;;9.70;99.90;;;;;;4981289;28;89553;-33
2023/12/29 03:07:39;;;;;;;12.52;4.03;;;9.70;99.90;;;;;;4982589;28;89308;-33
2023/12/29 03:10:05;;;;;;;12.43;3.85;;;9.70;99.90;;;;;;4981693;28;90523;-30
2023/12/29 03:12:31;;;;;;;8.35;3.80;;;9.70;99.90;;;;;;4981856;28;89508;-31
2023/12/29 03:14:56;;;;;;;12.93;4.18;;;9.80;99.90;;;;;;4981554;28;90329;-32
2023/12/29 03:17:22;;;;;;;5.47;3.25;;;9.80;99.90;;;;;;4982532;28;88748;-28
2023/12/29 03:19:48;;;;;;;8.75;4.32;;;9.90;99.90;;;;;;4982228;28;90125;-33
2023/12/29 03:22:13;;;;;;;7.80;3.45;;;9.90;99.90;;;;;;4981455;28;88749;-30
2023/12/29 03:24:42;;;;;;;7.68;2.55;;;9.90;99.90;;;;;;4981109;28;89554;-33
2023/12/29 03:27:08;;;;;;;4.15;3.00;;;9.80;99.90;;;;;;4980921;28;89584;-35
2023/12/29 03:29:33;;;;;;;12.73;3.95;;;9.90;99.90;;;;;;4981384;28;90835;-32
2023/12/29 03:31:59;;;;;;;4.32;3.17;;;9.90;99.90;;;;;;4981868;28;91442;-31
2023/12/29 03:34:25;;;;;;;24.52;3.63;;;9.90;99.90;;;;;;4981266;28;90275;-31
2023/12/29 03:36:50;;;;;;;5.13;2.70;;;9.90;99.90;;;;;;4982114;28;89439;-32
2023/12/29 03:39:16;;;;;;;3.38;2.55;;;9.90;99.90;;;;;;4980678;28;90123;-34
2023/12/29 03:41:42;;;;;;;13.13;4.28;;;10.00;99.90;;;;;;4982066;28;88923;-32
2023/12/29 03:44:07;;;;;;;5.38;2.80;;;9.90;99.90;;;;;;4981520;28;89582;-30
2023/12/29 03:46:33;;;;;;;5.13;2.85;;;9.90;99.90;;;;;;4981932;28;88617;-29
2023/12/29 03:48:58;;;;;;;5.03;2.95;;;10.00;99.90;;;;;;4981014;28;90045;-29
2023/12/29 03:51:24;;;;;;;7.78;3.40;;;9.90;99.90;;;;;;4980334;28;90451;-31
2023/12/29 03:53:50;;;;;;;17.42;4.60;;;9.90;99.90;;;;;;4981029;28;89994;-31
2023/12/29 03:56:17;;;;;;;4.88;2.35;;;9.90;99.90;;;;;;4982045;28;90408;-32
2023/12/29 03:58:46;;;;;;;9.60;3.47;;;9.90;99.90;;;;;;4981166;28;88841;-31
2023/12/29 04:01:12;;;;;;;8.20;2.83;;;9.90;99.90;;;;;;4980420;28;90388;-33
2023/12/29 04:03:38;;;;;;;8.18;3.83;;;9.90;99.90;;;;;;4980979;28;89888;-31
2023/12/29 04:06:05;;;;;;;9.25;3.58;;;9.90;99.90;;;;;;4980826;28;89023;-33
2023/12/29 04:08:31;;;;;;;8.95;4.15;;;9.80;99.90;;;;;;4981159;28;90236;-34
2023/12/29 04:10:56;;;;;;;6.88;4.57;;;9.80;99.90;;;;;;4980380;28;89613;-32
2023/12/29 04:13:22;;;;;;;2.25;2.03;;;9.80;99.90;;;;;;4979933;28;89824;-33
2023/12/29 04:15:47;;;;;;;12.43;5.55;;;9.80;99.90;;;;;;4981985;28;90515;-32
2023/12/29 04:18:13;;;;;;;7.40;4.10;;;9.80;99.90;;;;;;4981276;28;89942;-31
2023/12/29 04:20:39;;;;;;;14.35;3.33;;;9.80;99.90;;;;;;4979885;28;89941;-30
2023/12/29 04:23:07;;;;;;;7.75;4.03;;;9.70;99.90;;;;;;4979972;28;89486;-33
2023/12/29 04:25:32;;;;;;;23.40;3.10;;;9.70;99.90;;;;;;4981106;28;89382;-31
2023/12/29 04:27:58;;;;;;;18.10;5.13;;;9.70;99.90;;;;;;4980515;28;90409;-30
2023/12/29 04:30:23;;;;;;;15.50;3.08;;;9.70;99.90;;;;;;4980701;28;89790;-33
2023/12/29 04:32:49;;;;;;;12.60;3.45;;;9.70;99.90;;;;;;4980819;28;89995;-34
2023/12/29 04:35:15;;;;;;;6.63;3.03;;;9.70;99.90;;;;;;4980117;28;88270;-33
2023/12/29 04:37:46;;;;;;;8.60;5.15;;;9.70;99.90;;;;;;4980451;28;90918;-32
2023/12/29 04:40:12;;;;;;;7.60;2.30;;;9.70;99.90;;;;;;4979414;28;90012;-33
2023/12/29 04:42:38;;;;;;;8.30;3.00;;;9.70;99.90;;;;;;4980401;28;90362;-32
2023/12/29 04:45:05;;;;;;;6.93;3.22;;;9.70;99.90;;;;;;4980481;28;88004;-29
2023/12/29 04:47:30;;;;;;;10.02;5.57;;;9.70;99.90;;;;;;4979365;28;91032;-32
2023/12/29 04:49:56;;;;;;;9.35;4.18;;;9.70;99.90;;;;;;4980825;28;89729;-32
2023/12/29 04:52:22;;;;;;;12.77;5.22;;;9.60;99.90;;;;;;4980072;28;88726;-30
2023/12/29 04:54:47;;;;;;;14.10;4.68;;;9.60;99.90;;;;;;4981271;28;90465;-31
2023/12/29 04:57:13;;;;;;;13.52;3.70;;;9.60;99.90;;;;;;4980230;28;90453;-31
2023/12/29 04:59:39;;;;;;;13.00;3.45;;;9.70;99.90;;;;;;4979302;28;89626;-33
2023/12/29 05:02:04;;;;;;;14.68;3.47;;;9.60;99.90;;;;;;4979628;28;90101;-31
2023/12/29 05:04:30;;;;;;;17.83;4.90;;;9.60;99.90;;;;;;4979396;28;89566;-32
2023/12/29 05:06:56;;;;;;;9.02;3.75;;;9.60;99.90;;;;;;4979839;28;90588;-34
2023/12/29 05:09:22;;;;;;;17.88;3.20;;;9.60;99.90;;;;;;4980336;28;89472;-34
2023/12/29 05:11:47;;;;;;;6.38;3.20;;;9.60;99.90;;;;;;4980012;28;89286;-32
2023/12/29 05:14:13;;;;;;;10.23;4.00;;;9.60;99.90;;;;;;4980759;28;88026;-32
2023/12/29 05:16:39;;;;;;;5.70;4.35;;;9.60;99.90;;;;;;4979223;28;89144;-30
2023/12/29 05:19:05;;;;;;;9.98;5.40;;;9.60;99.90;;;;;;4980390;28;89481;-32
2023/12/29 05:21:30;;;;;;;11.07;4.15;;;9.70;99.90;;;;;;4979851;28;90037;-31
2023/12/29 05:23:56;;;;;;;4.68;2.80;;;9.60;99.90;;;;;;4979115;28;89648;-34
2023/12/29 05:26:22;;;;;;;16.50;2.58;;;9.60;99.90;;;;;;4979282;28;90446;-31
2023/12/29 05:28:47;;;;;;;11.63;4.65;;;9.60;99.90;;;;;;4978556;28;90513;-34
2023/12/29 05:31:13;;;;;;;6.18;4.13;;;9.60;99.90;;;;;;4979228;28;90512;-31
2023/12/29 05:33:38;;;;;;;12.68;5.18;;;9.60;99.90;;;;;;4979837;28;88925;-30
2023/12/29 05:36:09;;;;;;;7.15;3.78;;;9.60;99.90;;;;;;4979489;28;90421;-31
2023/12/29 05:38:35;;;;;;;8.15;3.50;;;9.60;99.90;;;;;;4979423;28;89686;-31
2023/12/29 05:41:04;;;;;;;8.25;3.38;;;9.60;99.90;;;;;;4979366;28;89456;-31
2023/12/29 05:43:32;;;;;;;13.73;3.45;;;9.60;99.90;;;;;;4979615;28;89743;-31
2023/12/29 05:45:58;;;;;;;7.22;3.47;;;9.60;99.90;;;;;;4979356;28;88986;-30
2023/12/29 05:48:24;;;;;;;14.93;3.28;;;9.50;99.90;;;;;;4980083;28;90276;-31
2023/12/29 05:50:50;;;;;;;13.35;5.03;;;9.60;99.90;;;;;;4964481;28;89485;-29
2023/12/29 05:53:16;;;;;;;8.63;3.55;;;9.50;99.90;;;;;;4978307;28;89570;-33
2023/12/29 05:55:43;;;;;;;10.32;4.55;;;9.60;99.90;;;;;;4979716;28;90720;-31
2023/12/29 05:58:08;;;;;;;15.63;4.72;;;9.50;99.90;;;;;;4979142;28;91278;-33
2023/12/29 06:00:35;;;;;;;21.23;5.38;;;9.60;99.90;;;;;;4979027;28;89575;-32
2023/12/29 06:03:00;;;;;;;12.07;4.43;;;9.60;99.90;;;;;;4979290;28;89487;-30
2023/12/29 06:05:26;;;;;;;12.40;4.85;;;9.50;99.90;;;;;;4978315;28;90356;-30
2023/12/29 06:07:52;;;;;;;17.05;5.68;;;9.50;99.90;;;;;;4979477;28;90172;-31
2023/12/29 06:10:17;;;;;;;10.73;3.88;;;9.50;99.90;;;;;;4978591;28;91250;-33
2023/12/29 06:12:43;;;;;;;11.95;4.28;;;9.50;99.90;;;;;;4979074;28;89203;-31
2023/12/29 06:15:09;;;;;;;9.88;4.22;;;9.50;99.90;;;;;;4978842;28;91357;-31
2023/12/29 06:17:35;;;;;;;11.90;4.10;;;9.50;99.90;;;;;;4978403;28;90381;-30
2023/12/29 06:20:03;;;;;;;19.92;4.05;;;9.50;99.90;;;;;;4979219;28;90332;-33
2023/12/29 06:22:29;;;;;;;12.23;4.50;;;9.50;99.90;;;;;;4979385;28;88432;-31
2023/12/29 06:24:54;;;;;;;18.25;4.13;;;9.50;99.90;;;;;;4977523;28;91075;-30
2023/12/29 06:27:20;;;;;;;10.43;3.95;;;9.60;99.90;;;;;;4978861;28;89479;-33
2023/12/29 06:29:46;;;;;;;7.78;3.90;;;9.60;99.90;;;;;;4978165;28;89864;-31
2023/12/29 06:32:11;;;;;;;18.38;3.65;;;9.60;99.90;;;;;;4979392;28;90354;-31
2023/12/29 06:34:37;;;;;;;8.93;4.68;;;9.60;99.90;;;;;;4978637;28;90653;-29
2023/12/29 06:37:03;;;;;;;7.13;3.97;;;9.70;99.90;;;;;;4978631;28;90260;-31
2023/12/29 06:39:28;;;;;;;7.68;5.22;;;9.70;99.90;;;;;;4978703;28;89430;-31
2023/12/29 06:41:54;;;;;;;14.63;4.38;;;9.70;99.90;;;;;;4978410;28;90212;-29
2023/12/29 06:44:19;;;;;;;13.98;3.80;;;9.70;99.90;;;;;;4978585;28;90362;-32
2023/12/29 06:46:45;;;;;;;14.25;4.47;;;9.70;99.90;;;;;;4978635;28;89532;-30
2023/12/29 06:49:11;;;;;;;12.68;3.70;;;9.70;99.90;;;;;;4977768;28;90063;-33
2023/12/29 06:51:38;;;;;;;25.45;6.30;;;9.70;99.90;;;;;;4978504;28;88209;-30
2023/12/29 06:54:04;;;;;;;6.70;2.93;;;9.60;99.90;;;;;;4977741;28;90991;-32
2023/12/29 06:56:30;;;;;;;18.83;5.57;;;9.60;99.90;;;;;;4979340;28;90689;-29
2023/12/29 06:58:55;;;;;;;18.33;5.15;;;9.60;99.90;;;;;;4978533;28;89320;-31
2023/12/29 07:01:21;;;;;;;14.63;6.72;;;9.60;99.90;;;;;;4978796;28;90225;-30
2023/12/29 07:03:47;;;;;;;16.83;5.20;;;9.60;99.90;;;;;;4978127;28;90883;-32
2023/12/29 07:06:12;;;;;;;11.02;3.60;;;9.50;99.90;;;;;;4977517;28;92006;-32
2023/12/29 07:08:38;;;;;;;19.35;4.20;;;9.50;99.90;;;;;;4977995;28;90033;-31
2023/12/29 07:11:04;;;;;;;22.05;5.32;;;9.50;99.90;;;;;;4977606;28;88737;-31
2023/12/29 07:13:30;;;;;;;10.02;4.43;;;9.40;99.90;;;;;;4977953;28;89122;-33
2023/12/29 07:15:55;;;;;;;7.15;3.20;;;9.50;99.90;;;;;;4978401;28;89534;-32
2023/12/29 07:18:21;;;;;;;9.57;4.07;;;9.50;99.90;;;;;;4977644;28;90158;-33
2023/12/29 07:20:46;;;;;;;17.20;5.70;;;9.40;99.90;;;;;;4978312;28;89414;-30
2023/12/29 07:23:12;;;;;;;10.02;5.15;;;9.40;99.90;;;;;;4972283;28;90094;-30
2023/12/29 07:25:38;;;;;;;30.20;6.07;;;9.40;99.90;;;;;;4978305;28;90288;-32
2023/12/29 07:28:04;;;;;;;9.45;5.30;;;9.30;99.90;;;;;;4977909;28;89771;-33
2023/12/29 07:30:29;;;;;;;12.10;3.75;;;9.40;99.90;;;;;;4977722;28;88681;-32
2023/12/29 07:32:55;;;;;;;14.23;4.40;;;9.30;99.90;;;;;;4977822;28;91077;-32
2023/12/29 07:35:21;;;;;;;11.82;3.80;;;9.30;99.90;;;;;;4976865;28;89173;-30
2023/12/29 07:37:46;;;;;;;18.42;5.35;;;9.30;99.90;;;;;;4978107;28;90486;-32
2023/12/29 07:40:13;;;;;;;21.25;5.32;;;9.20;99.90;;;;;;4993173;28;89603;-32
2023/12/29 07:42:44;;;;;;;15.60;3.53;;;9.20;99.90;;;;;;4977542;28;90613;-31
2023/12/29 07:45:10;;;;;;;19.05;6.47;;;9.20;99.90;;;;;;5032269;22;95096;-30
2023/12/29 07:47:36;;;;;;;17.58;5.00;;;9.10;99.90;;;;;;4988978;28;94896;-29
2023/12/29 07:50:02;;;;;;;13.23;6.82;;;9.10;99.90;;;;;;4987387;28;92679;-32
2023/12/29 07:52:29;;;;;;;13.48;5.28;;;9.10;99.90;;;;;;4991450;28;94306;-34
2023/12/29 07:54:55;;;;;;;14.18;5.45;;;9.00;99.90;;;;;;4987135;28;95502;-32
2023/12/29 07:57:20;;;;;;;19.15;4.55;;;9.00;99.90;;;;;;4990798;28;94917;-32
2023/12/29 07:59:46;;;;;;;16.52;4.63;;;9.00;99.90;;;;;;4988527;28;92577;-30
2023/12/29 08:02:11;;;;;;;8.05;3.63;;;9.00;99.90;;;;;;4987705;28;92661;-28
2023/12/29 08:04:38;;;;;;;8.80;3.72;;;9.10;99.90;;;;;;4979301;28;94770;-32
2023/12/29 08:07:03;;;;;;;14.88;4.80;;;9.10;99.90;;;;;;4984806;28;94441;-32
2023/12/29 08:09:29;;;;;;;10.93;3.97;;;9.10;99.90;;;;;;4981272;28;93470;-29
2023/12/29 08:11:55;;;;;;;11.00;5.25;;;9.20;99.90;;;;;;4985641;28;93682;-33
2023/12/29 08:14:20;;;;;;;7.88;4.40;;;9.20;99.90;;;;;;4981514;28;94902;-30
2023/12/29 08:16:46;;;;;;;11.95;3.63;;;9.20;99.90;;;;;;4985627;28;93551;-33
2023/12/29 08:19:12;;;;;;;20.70;4.60;;;9.20;99.90;;;;;;4981429;28;94973;-31
2023/12/29 08:21:37;;;;;;;15.43;5.15;;;9.20;99.90;;;;;;4986014;28;93058;-31
2023/12/29 08:24:03;;;;;;;17.63;4.60;;;9.20;99.90;;;;;;4982339;28;94172;-34
2023/12/29 08:26:29;;;;;;;18.60;5.00;;;9.30;99.90;;;;;;4986836;28;94957;-32
2023/12/29 08:28:55;;;;;;;4.88;3.15;;;9.30;99.90;;;;;;4990984;28;92501;-31
2023/12/29 08:31:22;;;;;;;10.50;3.60;;;9.40;99.90;;;;;;4997375;28;94370;-32
2023/12/29 08:33:48;;;;;;;8.40;4.03;;;9.40;99.90;;;;;;4985442;28;94976;-33
2023/12/29 08:36:17;;;;;;;11.35;4.43;;;9.40;99.90;;;;;;4997229;28;94165;-30
2023/12/29 08:38:43;;;;;;;13.07;4.63;;;9.40;99.90;;;;;;4998492;28;94404;-33
2023/12/29 08:41:09;;;;;;;9.00;4.75;;;9.40;99.90;;;;;;4991429;28;93316;-33
2023/12/29 08:43:36;;;;;;;18.45;4.28;;;9.50;99.90;;;;;;4990136;28;95556;-31
2023/12/29 08:46:01;;;;;;;20.35;5.38;;;9.50;99.90;;;;;;4990745;28;95479;-33
2023/12/29 08:48:27;;;;;;;16.98;5.07;;;9.50;99.90;;;;;;4990850;28;93876;-33
2023/12/29 08:50:53;;;;;;;11.43;3.95;;;9.50;99.90;;;;;;4997471;28;93092;-34
2023/12/29 08:53:18;;;;;;;13.48;5.40;;;9.50;99.90;;;;;;4997137;28;95794;-34
2023/12/29 08:55:44;;;;;;;11.05;3.95;;;9.50;99.90;;;;;;4996406;28;94638;-32
2023/12/29 08:58:09;;;;;;;10.00;4.15;;;9.50;99.90;;;;;;4989860;28;93564;-32
2023/12/29 09:00:35;;;;;;;10.88;4.10;;;9.50;99.90;;;;;;4983254;28;91574;-32
2023/12/29 09:03:01;;;;;;;8.68;4.15;;;9.40;99.90;;;;;;4993365;28;93420;-31
2023/12/29 09:05:26;;;;;;;9.52;3.95;;;9.40;99.90;;;;;;4986862;28;95031;-32
2023/12/29 09:07:52;;;;;;;4.72;1.90;;;9.30;99.90;;;;;;4993885;28;93622;-32
2023/12/29 09:10:18;;;;;;;7.85;3.00;;;9.10;99.90;;;;;;4993284;28;92586;-32
2023/12/29 09:12:43;;;;;;;3.65;2.45;;;9.10;99.90;;;;;;4993079;28;94644;-32
2023/12/29 09:15:10;;;;;;;7.38;3.00;;;9.00;99.90;;;;;;4993678;28;94616;-34
2023/12/29 09:17:35;;;;;;;11.25;3.95;;;8.90;99.90;;;;;;4993523;28;93663;-31
2023/12/29 09:20:02;;;;;;;8.98;3.50;;;8.90;99.90;;;;;;4989364;28;93777;-33
2023/12/29 09:22:27;;;;;;;6.30;2.72;;;8.90;99.90;;;;;;4993374;28;94387;-32
2023/12/29 09:24:55;;;;;;;9.80;3.28;;;8.90;99.90;;;;;;4993778;28;94957;-35
2023/12/29 09:27:21;;;;;;;22.73;3.53;;;8.90;99.90;;;;;;4993989;28;94142;-32
2023/12/29 09:29:46;;;;;;;10.13;4.55;;;8.90;99.90;;;;;;4992646;28;92826;-32
2023/12/29 09:32:12;;;;;;;10.00;3.53;;;9.00;99.90;;;;;;4987846;28;96222;-32
2023/12/29 09:34:37;;;;;;;10.95;4.03;;;9.10;99.90;;;;;;4985796;28;96932;-31
2023/12/29 09:37:03;;;;;;;10.18;2.92;;;9.20;99.90;;;;;;4986719;28;94203;-30
2023/12/29 09:39:29;;;;;;;8.18;3.45;;;9.20;99.90;;;;;;4988915;28;93545;-31
2023/12/29 09:42:00;;;;;;;13.07;4.22;;;9.30;99.90;;;;;;4985756;28;95029;-33
2023/12/29 09:44:28;;;;;;;8.63;3.33;;;9.30;99.90;;;;;;4981731;28;94074;-32
2023/12/29 09:46:54;;;;;;;7.23;4.97;;;9.30;99.90;;;;;;4984435;28;94084;-33
2023/12/29 09:49:20;;;;;;;3.97;3.13;;;9.30;99.90;;;;;;4990719;28;93500;-34
2023/12/29 09:51:48;;;;;;;10.90;4.75;;;9.30;99.90;;;;;;4987027;28;93911;-34
2023/12/29 09:54:15;;;;;;;4.60;2.47;;;9.40;99.90;;;;;;4984830;28;94593;-30
2023/12/29 09:56:41;;;;;;;9.27;3.15;;;9.40;99.90;;;;;;4985937;28;93074;-30
2023/12/29 09:59:09;;;;;;;4.32;2.88;;;9.40;99.90;;;;;;4990560;28;93196;-31
2023/12/29 10:01:37;;;;;;;6.20;2.95;;;9.40;99.90;;;;;;4985323;28;94779;-30
2023/12/29 10:04:03;;;;;;;3.08;2.80;;;9.30;99.90;;;;;;4990382;28;94182;-32
2023/12/29 10:06:34;;;;;;;5.80;3.30;;;9.30;99.90;;;;;;4987096;28;93813;-33
2023/12/29 10:09:06;;;;;;;8.32;2.58;;;9.30;99.90;;;;;;4990001;28;92539;-32
2023/12/29 10:11:35;;;;;;;16.67;4.00;;;9.30;99.90;;;;;;4983781;28;95261;-33
2023/12/29 10:14:15;;;;;;;9.52;3.17;;;9.30;99.90;;;;;;4988623;28;94508;-31
2023/12/29 10:16:50;;;;;;;4.30;2.80;;;9.40;99.90;;;;;;4978514;28;94268;-30
2023/12/29 10:19:39;;;;;;;6.90;4.10;;;9.40;99.90;;;;;;4984351;28;93208;-33
2023/12/29 10:22:30;;;;;;;7.13;2.33;;;9.40;99.90;;;;;;4988299;28;95967;-32
2023/12/29 10:24:56;;;;;;;8.13;3.28;;;9.40;99.90;;;;;;4971876;28;95291;-33
2023/12/29 10:27:22;;;;;;;5.88;2.53;;;9.40;99.90;;;;;;4987539;28;93633;-32
2023/12/29 10:29:48;;;;;;;5.55;2.30;;;9.40;99.90;;;;;;4988304;28;93400;-31
2023/12/29 10:32:14;;;;;;;6.22;3.00;;;9.40;99.90;;;;;;4986190;28;94386;-33
2023/12/29 10:34:41;;;;;;;2.53;2.00;;;9.40;99.90;;;;;;4992655;28;95132;-33
2023/12/29 10:37:08;;;;;;;4.30;2.67;;;9.40;99.90;;;;;;4993896;28;94218;-32
2023/12/29 10:39:36;;;;;;;6.95;2.35;;;9.30;99.90;;;;;;4992660;28;92285;-32
2023/12/29 10:42:09;;;;;;;1.80;1.70;;;9.40;99.90;;;;;;4986537;28;94499;-32
2023/12/29 10:44:35;;;;;;;4.53;2.10;;;9.30;99.90;;;;;;4964339;28;95047;-32
2023/12/29 10:47:11;;;;;;;10.93;2.17;;;9.30;99.90;;;;;;4972860;28;95476;-33
2023/12/29 10:49:37;;;;;;;4.75;2.38;;;9.30;99.90;;;;;;4969726;28;92273;-31
2023/12/29 10:52:13;;;;;;;9.73;3.13;;;9.20;99.90;;;;;;4968846;28;94449;-33
2023/12/29 10:54:39;;;;;;;3.15;1.75;;;9.20;99.90;;;;;;4966393;28;94558;-30
2023/12/29 10:57:04;;;;;;;6.47;1.83;;;9.20;99.90;;;;;;4980419;28;92794;-33
2023/12/29 10:59:30;;;;;;;4.72;1.70;;;9.10;99.90;;;;;;4975916;28;93427;-30
2023/12/29 11:01:56;;;;;;;2.47;1.60;;;9.00;99.90;;;;;;4977381;28;95301;-31
2023/12/29 11:04:25;;;;;;;3.40;1.55;;;9.00;99.90;;;;;;4975676;28;94533;-31
2023/12/29 11:06:51;;;;;;;2.45;1.90;;;8.90;99.90;;;;;;4987563;28;94259;-33
2023/12/29 11:09:30;;;;;;;5.22;2.35;;;8.90;99.90;;;;;;4983262;28;92957;-32
2023/12/29 11:11:59;;;;;;;4.25;1.45;;;9.00;99.90;;;;;;4988276;28;95329;-34
2023/12/29 11:14:25;;;;;;;5.07;1.77;;;9.00;99.90;;;;;;4977020;28;94913;-30
2023/12/29 11:16:52;;;;;;;7.13;2.47;;;9.00;99.90;;;;;;4988449;28;93511;-32
2023/12/29 11:19:18;;;;;;;1.67;1.10;;;9.00;99.90;;;;;;4984761;28;94699;-31
2023/12/29 11:21:45;;;;;;;4.57;1.92;;;9.10;99.90;;;;;;4986176;28;94686;-31
2023/12/29 11:24:11;;;;;;;5.88;1.83;;;9.10;99.90;;;;;;4969578;28;94828;-31
2023/12/29 11:26:37;;;;;;;6.90;2.45;;;9.20;99.90;;;;;;4991791;28;93827;-31
2023/12/29 11:29:04;;;;;;;2.42;2.22;;;9.20;99.90;;;;;;4993479;28;93663;-33
2023/12/29 11:31:31;;;;;;;3.22;1.92;;;9.20;99.90;;;;;;4962539;28;94259;-30
2023/12/29 11:34:37;;;;;;;3.58;2.17;;;9.20;99.90;;;;;;4977304;28;95512;-30
2023/12/29 11:37:21;;;;;;;8.90;2.10;;;9.30;99.90;;;;;;4931254;28;95648;-32
2023/12/29 11:40:19;;;;;;;4.63;3.17;;;9.30;99.90;;;;;;4975080;28;93317;-31
2023/12/29 11:42:47;;;;;;;;;;;9.30;99.90;;;;;;4993714;28;94788;-31
2023/12/29 11:45:31;;;;;;;10.87;2.83;;;9.30;99.90;;;;;;4990530;28;93611;-30
2023/12/29 11:48:00;;;;;;;6.15;2.50;;;9.40;99.90;;;;;;4993097;28;94926;-32
2023/12/29 11:50:33;;;;;;;7.75;4.00;;;9.40;99.90;;;;;;4986704;28;94625;-34
2023/12/29 11:52:59;;;;;;;12.23;3.00;;;9.40;99.90;;;;;;4978338;28;94734;-31
2023/12/29 11:55:35;;;;;;;5.13;2.75;;;9.50;99.90;;;;;;4984367;28;93345;-31
2023/12/29 11:58:04;;;;;;;7.80;3.97;;;9.50;99.90;;;;;;4964590;28;93898;-33
2023/12/29 12:00:49;;;;;;;6.05;2.22;;;9.60;99.90;;;;;;4977912;28;94191;-30
2023/12/29 12:03:23;;;;;;;6.90;3.78;;;9.60;99.90;;;;;;4977578;28;95674;-32
2023/12/29 12:05:49;;;;;;;5.53;2.25;;;9.60;99.90;;;;;;4977412;28;95564;-29
2023/12/29 12:08:41;;;;;;;5.35;2.47;;;9.60;99.90;;;;;;4979178;28;94531;-31
2023/12/29 12:11:29;;;;;;;7.60;3.25;;;9.60;99.90;;;;;;4981514;28;94791;-30
2023/12/29 12:13:55;;;;;;;4.03;2.43;;;9.60;99.90;;;;;;4964816;28;95040;-30
2023/12/29 12:16:49;;;;;;;6.40;2.17;;;9.50;99.90;;;;;;4976275;28;95133;-32
2023/12/29 12:19:16;;;;;;;11.30;3.33;;;9.60;99.90;;;;;;4993761;28;93529;-31
2023/12/29 12:21:47;;;;;;;6.15;2.35;;;9.70;99.90;;;;;;4995650;28;92621;-30
2023/12/29 12:24:13;;;;;;;5.85;2.30;;;9.70;99.90;;;;;;4995171;28;94138;-33
2023/12/29 12:26:40;;;;;;;5.88;2.92;;;9.70;99.90;;;;;;4995645;28;95226;-30
2023/12/29 12:29:07;;;;;;;12.63;3.05;;;9.80;99.90;;;;;;4994466;28;94505;-31
2023/12/29 12:31:32;;;;;;;16.27;5.25;;;9.70;99.90;;;;;;4972705;28;94362;-33
2023/12/29 12:34:02;;;;;;;8.77;1.73;;;9.70;99.90;;;;;;4984930;28;94943;-31
2023/12/29 12:36:28;;;;;;;4.85;3.67;;;9.70;99.90;;;;;;4993274;28;94210;-32
2023/12/29 12:38:55;;;;;;;10.00;2.45;;;9.70;99.90;;;;;;4993602;28;94422;-33
2023/12/29 12:41:25;;;;;;;13.43;2.47;;;9.80;99.90;;;;;;4995537;28;93067;-33
2023/12/29 12:44:09;;;;;;;13.98;3.42;;;9.70;99.90;;;;;;4993502;28;94783;-31
2023/12/29 12:46:38;;;;;;;9.65;2.10;;;9.80;99.90;;;;;;4993728;28;94902;-30
2023/12/29 12:49:04;;;;;;;16.58;1.80;;;9.80;99.90;;;;;;4993368;28;93558;-29
2023/12/29 12:51:32;;;;;;;14.70;3.45;;;9.80;99.90;;;;;;4995193;28;94008;-31
2023/12/29 12:53:58;;;;;;;5.07;2.30;;;9.80;99.90;;;;;;4990989;28;95135;-32